createdAt,value
2018-08-20T00:00:49.454Z,60292.21
2018-08-20T00:03:17.653Z,60310.50
2018-08-20T00:05:50.108Z,60315.57
2018-08-20T00:08:18.286Z,60302.37
2018-08-20T00:10:46.466Z,60300.34
2018-08-20T00:13:14.666Z,60304.40
2018-08-20T00:15:42.857Z,60304.40
2018-08-20T00:18:16.842Z,60323.71
2018-08-20T00:20:45.126Z,60317.61
2018-08-20T00:23:13.328Z,60305.41
2018-08-20T00:25:41.525Z,60302.37
2018-08-20T00:28:09.688Z,60301.35
2018-08-20T00:30:38.818Z,60304.40
2018-08-20T00:33:06.983Z,60292.21
2018-08-20T00:35:35.267Z,60316.59
2018-08-20T00:38:03.451Z,60328.79
2018-08-20T00:40:31.618Z,60310.50
2018-08-20T00:42:59.814Z,60299.32
2018-08-20T00:45:28.015Z,60319.64
2018-08-20T00:47:56.194Z,60301.35
2018-08-20T00:50:24.389Z,60306.43
2018-08-20T00:52:52.592Z,60310.50
2018-08-20T00:55:20.811Z,60297.29
2018-08-20T00:57:48.982Z,60308.46
2018-08-20T01:00:17.170Z,60304.40
2018-08-20T01:02:45.364Z,60296.27
2018-08-20T01:05:13.550Z,60286.11
2018-08-20T01:07:41.718Z,60319.64
2018-08-20T01:10:09.898Z,60314.56
2018-08-20T01:12:38.062Z,60325.74
2018-08-20T01:15:06.242Z,60311.51
2018-08-20T01:17:34.410Z,60294.24
2018-08-20T01:20:02.593Z,60305.41
2018-08-20T01:22:30.782Z,60314.56
2018-08-20T01:24:59.048Z,60302.37
2018-08-20T01:27:27.744Z,60312.53
2018-08-20T01:29:55.980Z,60301.35
2018-08-20T01:32:24.180Z,60307.45
2018-08-20T01:34:52.358Z,60310.50
2018-08-20T01:37:21.327Z,60300.34
2018-08-20T01:39:49.948Z,60299.32
2018-08-20T01:42:18.634Z,60329.80
2018-08-20T01:44:47.613Z,60300.34
2018-08-20T01:47:15.821Z,60292.21
2018-08-20T01:49:43.997Z,60302.37
2018-08-20T01:52:12.179Z,60312.53
2018-08-20T01:54:40.346Z,60309.48
2018-08-20T01:57:08.559Z,60319.64
2018-08-20T01:59:37.666Z,60318.62
2018-08-20T02:02:05.857Z,60285.09
2018-08-20T02:04:34.098Z,60293.22
2018-08-20T02:07:02.293Z,60292.21
2018-08-20T02:09:30.546Z,60291.19
2018-08-20T02:11:58.755Z,60330.82
2018-08-20T02:14:26.950Z,60306.43
2018-08-20T02:16:55.130Z,60322.69
2018-08-20T02:19:23.329Z,60306.43
2018-08-20T02:21:51.727Z,60306.43
2018-08-20T02:24:19.902Z,60314.56
2018-08-20T02:26:48.086Z,60298.30
2018-08-20T02:29:16.289Z,60295.25
2018-08-20T02:31:44.462Z,60298.30
2018-08-20T02:34:12.837Z,60321.67
2018-08-20T02:36:41.791Z,60297.29
2018-08-20T02:39:12.370Z,60323.71
2018-08-20T02:41:40.965Z,60320.66
2018-08-20T02:44:09.943Z,60303.38
2018-08-20T02:46:44.427Z,60310.50
2018-08-20T02:49:12.853Z,60310.50
2018-08-20T02:51:41.094Z,60325.74
2018-08-20T02:54:09.714Z,60320.66
2018-08-20T02:56:37.886Z,60311.51
2018-08-20T02:59:06.358Z,60306.43
2018-08-20T03:01:34.554Z,60324.72
2018-08-20T03:04:02.758Z,60323.71
2018-08-20T03:06:30.974Z,60300.34
2018-08-20T03:08:59.181Z,60323.71
2018-08-20T03:11:27.365Z,60314.56
2018-08-20T03:13:55.542Z,60350.12
2018-08-20T03:16:23.784Z,60310.50
2018-08-20T03:18:51.982Z,60305.41
2018-08-20T03:21:20.164Z,60322.69
2018-08-20T03:23:48.367Z,60308.46
2018-08-20T03:26:16.569Z,60310.50
2018-08-20T03:28:44.744Z,60329.80
2018-08-20T03:31:12.931Z,60317.61
2018-08-20T03:33:41.105Z,60317.61
2018-08-20T03:36:09.287Z,60328.79
2018-08-20T03:38:37.465Z,60312.53
2018-08-20T03:41:05.725Z,60316.59
2018-08-20T03:43:33.911Z,60315.57
2018-08-20T03:46:02.110Z,60333.87
2018-08-20T03:48:30.554Z,60332.85
2018-08-20T03:50:58.770Z,60315.57
2018-08-20T03:53:26.983Z,60323.71
2018-08-20T03:55:55.204Z,60312.53
2018-08-20T03:58:23.374Z,60319.64
2018-08-20T04:00:51.575Z,60328.79
2018-08-20T04:03:19.762Z,60329.80
2018-08-20T04:05:47.923Z,60333.87
2018-08-20T04:08:16.098Z,60310.50
2018-08-20T04:10:44.282Z,60312.53
2018-08-20T04:13:12.450Z,60317.61
2018-08-20T04:15:40.622Z,60317.61
2018-08-20T04:18:08.866Z,60349.11
2018-08-20T04:20:37.078Z,60337.93
2018-08-20T04:23:05.284Z,60315.57
2018-08-20T04:25:33.459Z,60326.75
2018-08-20T04:28:01.866Z,60326.75
2018-08-20T04:30:30.079Z,60329.80
2018-08-20T04:32:58.215Z,60317.61
2018-08-20T04:35:26.405Z,60323.71
2018-08-20T04:37:54.577Z,60327.77
2018-08-20T04:40:22.746Z,60313.54
2018-08-20T04:42:50.971Z,60336.91
2018-08-20T04:45:19.145Z,60340.98
2018-08-20T04:47:47.320Z,60319.64
2018-08-20T04:50:15.622Z,60333.87
2018-08-20T04:52:43.678Z,60347.08
2018-08-20T04:55:11.862Z,60322.69
2018-08-20T04:57:40.031Z,60327.77
2018-08-20T05:00:09.869Z,60337.93
2018-08-20T05:02:38.078Z,60336.91
2018-08-20T05:05:06.296Z,60332.85
2018-08-20T05:07:34.899Z,60350.12
2018-08-20T05:10:03.111Z,60344.03
2018-08-20T05:12:31.234Z,60320.66
2018-08-20T05:14:59.640Z,60313.54
2018-08-20T05:17:28.307Z,60312.53
2018-08-20T05:19:56.474Z,60329.80
2018-08-20T05:22:24.663Z,60339.96
2018-08-20T05:24:52.836Z,60305.41
2018-08-20T05:27:21.019Z,60329.80
2018-08-20T05:29:49.193Z,60301.35
2018-08-20T05:32:17.365Z,60328.79
2018-08-20T05:34:45.531Z,60344.03
2018-08-20T05:37:13.710Z,60345.04
2018-08-20T05:39:41.881Z,60338.95
2018-08-20T05:42:10.058Z,60310.50
2018-08-20T05:44:38.249Z,60326.75
2018-08-20T05:47:06.442Z,60319.64
2018-08-20T05:49:34.618Z,60336.91
2018-08-20T05:52:02.839Z,60332.85
2018-08-20T05:54:31.007Z,60312.53
2018-08-20T05:56:59.182Z,60340.98
2018-08-20T05:59:27.355Z,60329.80
2018-08-20T06:01:55.530Z,60348.09
2018-08-20T06:04:23.720Z,60321.67
2018-08-20T06:06:51.890Z,60330.82
2018-08-20T06:09:20.080Z,60313.54
2018-08-20T06:11:48.267Z,60310.50
2018-08-20T06:14:16.470Z,60330.82
2018-08-20T06:16:44.684Z,60333.87
2018-08-20T06:19:12.867Z,60324.72
2018-08-20T06:21:41.052Z,60305.41
2018-08-20T06:24:09.222Z,60332.85
2018-08-20T06:26:37.393Z,60345.04
2018-08-20T06:29:05.664Z,60314.56
2018-08-20T06:31:33.847Z,60347.08
2018-08-20T06:34:02.030Z,60324.72
2018-08-20T06:36:30.398Z,60320.66
2018-08-20T06:38:58.598Z,60327.77
2018-08-20T06:41:26.870Z,60323.71
2018-08-20T06:43:55.019Z,60334.88
2018-08-20T06:46:23.223Z,60328.79
2018-08-20T06:48:51.414Z,60327.77
2018-08-20T06:51:19.794Z,60333.87
2018-08-20T06:53:47.962Z,60298.30
2018-08-20T06:56:16.179Z,60309.48
2018-08-20T06:58:44.348Z,60329.80
2018-08-20T07:01:12.543Z,60333.87
2018-08-20T07:03:40.731Z,60342.00
2018-08-20T07:06:08.938Z,60323.71
2018-08-20T07:08:37.143Z,60319.64
2018-08-20T07:11:05.329Z,60351.14
2018-08-20T07:13:35.787Z,60329.80
2018-08-20T07:16:04.314Z,60338.95
2018-08-20T07:18:32.492Z,60325.74
2018-08-20T07:21:00.670Z,60318.62
2018-08-20T07:23:29.500Z,60337.93
2018-08-20T07:25:57.625Z,60324.72
2018-08-20T07:28:25.826Z,60321.67
2018-08-20T07:30:54.029Z,60339.96
2018-08-20T07:33:22.262Z,60330.82
2018-08-20T07:35:50.451Z,60339.96
2018-08-20T07:38:18.621Z,60309.48
2018-08-20T07:40:46.804Z,60333.87
2018-08-20T07:43:15.006Z,60305.41
2018-08-20T07:45:43.194Z,60311.51
2018-08-20T07:48:11.379Z,60330.82
2018-08-20T07:50:39.580Z,60349.11
2018-08-20T07:53:08.030Z,60329.80
2018-08-20T07:55:36.254Z,60347.08
2018-08-20T07:58:04.480Z,60349.11
2018-08-20T08:00:32.665Z,60336.91
2018-08-20T08:03:00.831Z,60316.59
2018-08-20T08:05:29.007Z,60336.91
2018-08-20T08:07:57.191Z,60301.35
2018-08-20T08:10:25.362Z,60312.53
2018-08-20T08:12:53.618Z,60312.53
2018-08-20T08:15:21.790Z,60319.64
2018-08-20T08:17:49.970Z,60327.77
2018-08-20T08:20:18.154Z,60334.88
2018-08-20T08:22:46.355Z,60310.50
2018-08-20T08:25:14.550Z,60300.34
2018-08-20T08:27:42.723Z,60304.40
2018-08-20T08:30:16.370Z,60313.54
2018-08-20T08:32:44.641Z,60307.45
2018-08-20T08:35:13.663Z,60322.69
2018-08-20T08:37:41.987Z,60293.22
2018-08-20T08:40:11.698Z,60317.61
2018-08-20T08:42:39.890Z,60317.61
2018-08-20T08:45:14.403Z,60315.57
2018-08-20T08:47:42.994Z,60330.82
2018-08-20T08:50:11.312Z,60326.75
2018-08-20T08:52:39.559Z,60314.56
2018-08-20T08:55:08.218Z,60335.90
2018-08-20T08:57:36.813Z,60327.77
2018-08-20T09:00:07.803Z,60296.27
2018-08-20T09:02:35.983Z,60322.69
2018-08-20T09:05:04.875Z,60327.77
2018-08-20T09:07:33.075Z,60325.74
2018-08-20T09:10:01.267Z,60338.95
2018-08-20T09:12:29.438Z,60330.82
2018-08-20T09:14:57.616Z,60313.54
2018-08-20T09:17:25.813Z,60310.50
2018-08-20T09:19:53.984Z,60323.71
2018-08-20T09:22:22.158Z,60308.46
2018-08-20T09:24:50.344Z,60296.27
2018-08-20T09:27:18.518Z,60335.90
2018-08-20T09:29:46.712Z,60326.75
2018-08-20T09:32:14.960Z,60321.67
2018-08-20T09:34:43.085Z,60330.82
2018-08-20T09:37:11.687Z,60317.61
2018-08-20T09:39:39.876Z,60326.75
2018-08-20T09:42:08.052Z,60330.82
2018-08-20T09:44:36.233Z,60312.53
2018-08-20T09:47:04.428Z,60318.62
2018-08-20T09:49:32.878Z,60327.77
2018-08-20T09:52:01.079Z,60317.61
2018-08-20T09:54:29.270Z,60332.85
2018-08-20T09:56:57.475Z,60333.87
2018-08-20T09:59:25.672Z,60336.91
2018-08-20T10:01:53.835Z,60327.77
2018-08-20T10:04:22.002Z,60329.80
2018-08-20T10:06:50.195Z,60340.98
2018-08-20T10:09:18.359Z,60332.85
2018-08-20T10:11:46.543Z,60331.84
2018-08-20T10:14:14.719Z,60332.85
2018-08-20T10:16:42.907Z,60315.57
2018-08-20T10:19:11.089Z,60343.01
2018-08-20T10:21:39.274Z,60308.46
2018-08-20T10:24:07.746Z,60317.61
2018-08-20T10:26:35.915Z,60322.69
2018-08-20T10:29:04.110Z,60301.35
2018-08-20T10:31:32.295Z,60329.80
2018-08-20T10:34:00.474Z,60330.82
2018-08-20T10:36:28.679Z,60315.57
2018-08-20T10:38:56.858Z,60302.37
2018-08-20T10:41:25.100Z,60328.79
2018-08-20T10:43:53.303Z,60331.84
2018-08-20T10:46:25.887Z,60298.30
2018-08-20T10:48:54.447Z,60323.71
2018-08-20T10:51:22.628Z,60340.98
2018-08-20T10:53:50.894Z,60309.48
2018-08-20T10:56:19.056Z,60346.06
2018-08-20T10:58:47.231Z,60333.87
2018-08-20T11:01:15.423Z,60322.69
2018-08-20T11:03:47.750Z,60332.85
2018-08-20T11:06:17.018Z,60330.82
2018-08-20T11:08:45.200Z,60334.88
2018-08-20T11:11:13.639Z,60338.95
2018-08-20T11:13:41.811Z,60334.88
2018-08-20T11:16:10.226Z,60334.88
2018-08-20T11:18:38.427Z,60322.69
2018-08-20T11:21:06.599Z,60318.62
2018-08-20T11:23:34.786Z,60356.22
2018-08-20T11:26:02.998Z,60348.09
2018-08-20T11:28:31.175Z,60336.91
2018-08-20T11:30:59.378Z,60331.84
2018-08-20T11:33:27.543Z,60332.85
2018-08-20T11:35:55.731Z,60345.04
2018-08-20T11:38:23.904Z,60347.08
2018-08-20T11:40:52.109Z,60338.95
2018-08-20T11:43:21.231Z,60362.32
2018-08-20T11:45:49.346Z,60352.16
2018-08-20T11:48:17.535Z,60354.19
2018-08-20T11:50:45.725Z,60317.61
2018-08-20T11:53:13.898Z,60312.53
2018-08-20T11:55:42.095Z,60329.80
2018-08-20T11:58:10.287Z,60334.88
2018-08-20T12:00:38.509Z,60310.50
2018-08-20T12:03:07.649Z,60330.82
2018-08-20T12:05:35.826Z,60297.29
2018-08-20T12:08:03.995Z,60305.41
2018-08-20T12:10:32.169Z,60318.62
2018-08-20T12:13:00.329Z,60306.43
2018-08-20T12:15:28.540Z,60315.57
2018-08-20T12:17:56.698Z,60314.56
2018-08-20T12:20:24.887Z,60312.53
2018-08-20T12:22:53.082Z,60308.46
2018-08-20T12:25:21.270Z,60292.21
2018-08-20T12:27:49.442Z,60302.37
2018-08-20T12:30:17.611Z,60277.98
2018-08-20T12:32:45.795Z,60282.04
2018-08-20T12:35:13.970Z,60276.96
2018-08-20T12:37:42.213Z,60260.71
2018-08-20T12:40:10.407Z,60286.11
2018-08-20T12:42:38.602Z,60277.98
2018-08-20T12:45:07.266Z,60282.04
2018-08-20T12:47:35.454Z,60287.12
2018-08-20T12:50:03.823Z,60280.01
2018-08-20T12:52:32.018Z,60256.64
2018-08-20T12:55:00.233Z,60285.09
2018-08-20T12:57:28.424Z,60284.07
2018-08-20T12:59:58.263Z,60284.07
2018-08-20T13:02:26.736Z,60261.72
2018-08-20T13:04:54.930Z,60276.96
2018-08-20T13:07:23.292Z,60258.67
2018-08-20T13:09:51.473Z,60264.77
2018-08-20T13:12:19.658Z,60250.54
2018-08-20T13:14:48.128Z,60256.64
2018-08-20T13:17:17.111Z,60281.03
2018-08-20T13:19:45.303Z,60276.96
2018-08-20T13:22:13.506Z,60275.95
2018-08-20T13:24:41.758Z,60242.41
2018-08-20T13:27:09.994Z,60251.56
2018-08-20T13:29:38.206Z,60249.53
2018-08-20T13:32:06.799Z,60248.51
2018-08-20T13:34:35.020Z,60241.40
2018-08-20T13:37:03.359Z,60251.56
2018-08-20T13:39:31.570Z,60246.48
2018-08-20T13:41:59.742Z,60247.49
2018-08-20T13:44:27.963Z,60248.51
2018-08-20T13:46:56.135Z,60253.59
2018-08-20T13:49:24.336Z,60268.83
2018-08-20T13:51:53.004Z,60258.67
2018-08-20T13:54:21.287Z,60237.33
2018-08-20T13:56:49.494Z,60258.67
2018-08-20T13:59:17.673Z,60258.67
2018-08-20T14:01:45.868Z,60270.87
2018-08-20T14:04:14.116Z,60267.82
2018-08-20T14:06:42.284Z,60263.75
2018-08-20T14:09:11.340Z,60269.85
2018-08-20T14:11:39.534Z,60250.54
2018-08-20T14:14:08.311Z,60232.25
2018-08-20T14:16:36.598Z,60241.40
2018-08-20T14:19:05.057Z,60239.36
2018-08-20T14:21:33.230Z,60244.45
2018-08-20T14:24:01.439Z,60241.40
2018-08-20T14:26:29.998Z,60247.49
2018-08-20T14:28:58.174Z,60265.79
2018-08-20T14:31:26.355Z,60228.19
2018-08-20T14:33:54.613Z,60239.36
2018-08-20T14:36:22.811Z,60237.33
2018-08-20T14:38:51.019Z,60224.12
2018-08-20T14:41:19.190Z,60234.29
2018-08-20T14:43:47.371Z,60223.11
2018-08-20T14:46:21.010Z,60241.40
2018-08-20T14:48:49.601Z,60253.59
2018-08-20T14:51:18.123Z,60235.30
2018-08-20T14:53:46.333Z,60247.49
2018-08-20T14:56:14.548Z,60258.67
2018-08-20T14:58:42.737Z,60266.80
2018-08-20T15:01:11.010Z,60267.82
2018-08-20T15:03:39.215Z,60277.98
2018-08-20T15:06:07.444Z,60280.01
2018-08-20T15:08:37.098Z,60283.06
2018-08-20T15:11:05.294Z,60280.01
2018-08-20T15:13:33.695Z,60303.38
2018-08-20T15:16:01.948Z,60276.96
2018-08-20T15:18:30.070Z,60310.50
2018-08-20T15:20:58.264Z,60286.11
2018-08-20T15:23:26.486Z,60285.09
2018-08-20T15:25:54.694Z,60290.17
2018-08-20T15:28:22.882Z,60292.21
2018-08-20T15:30:51.075Z,60294.24
2018-08-20T15:33:19.268Z,60298.30
2018-08-20T15:35:47.442Z,60312.53
2018-08-20T15:38:15.627Z,60282.04
2018-08-20T15:40:43.804Z,60308.46
2018-08-20T15:43:11.991Z,60280.01
2018-08-20T15:45:40.182Z,60292.21
2018-08-20T15:48:08.502Z,60292.21
2018-08-20T15:50:36.715Z,60308.46
2018-08-20T15:53:05.049Z,60307.45
2018-08-20T15:55:33.146Z,60288.14
2018-08-20T15:58:01.327Z,60315.57
2018-08-20T16:00:29.517Z,60309.48
2018-08-20T16:02:57.699Z,60301.35
2018-08-20T16:05:25.891Z,60308.46
2018-08-20T16:07:54.120Z,60308.46
2018-08-20T16:10:22.310Z,60302.37
2018-08-20T16:12:50.534Z,60299.32
2018-08-20T16:15:18.711Z,60297.29
2018-08-20T16:17:46.903Z,60294.24
2018-08-20T16:20:15.111Z,60291.19
2018-08-20T16:22:43.287Z,60276.96
2018-08-20T16:25:11.511Z,60288.14
2018-08-20T16:27:39.700Z,60304.40
2018-08-20T16:30:10.275Z,60282.04
2018-08-20T16:32:38.494Z,60282.04
2018-08-20T16:35:08.326Z,60296.27
2018-08-20T16:37:36.509Z,60285.09
2018-08-20T16:40:04.954Z,60289.16
2018-08-20T16:42:33.135Z,60287.12
2018-08-20T16:45:01.338Z,60298.30
2018-08-20T16:47:29.519Z,60291.19
2018-08-20T16:49:57.715Z,60291.19
2018-08-20T16:52:25.979Z,60286.11
2018-08-20T16:54:54.174Z,60297.29
2018-08-20T16:57:22.478Z,60300.34
2018-08-20T16:59:50.658Z,60312.53
2018-08-20T17:02:23.996Z,60290.17
2018-08-20T17:04:52.175Z,60286.11
2018-08-20T17:07:20.360Z,60301.35
2018-08-20T17:09:48.547Z,60296.27
2018-08-20T17:12:16.739Z,60291.19
2018-08-20T17:14:44.950Z,60296.27
2018-08-20T17:17:13.144Z,60289.16
2018-08-20T17:19:43.690Z,60297.29
2018-08-20T17:22:11.890Z,60300.34
2018-08-20T17:24:40.849Z,60298.30
2018-08-20T17:27:09.502Z,60294.24
2018-08-20T17:29:37.718Z,60298.30
2018-08-20T17:32:07.218Z,60307.45
2018-08-20T17:34:37.966Z,60286.11
2018-08-20T17:37:06.171Z,60304.40
2018-08-20T17:39:35.283Z,60311.51
2018-08-20T17:42:03.474Z,60282.04
2018-08-20T17:44:31.657Z,60298.30
2018-08-20T17:47:00.044Z,60317.61
2018-08-20T17:49:29.107Z,60309.48
2018-08-20T17:51:57.310Z,60285.09
2018-08-20T17:54:28.426Z,60315.57
2018-08-20T17:56:56.722Z,60304.40
2018-08-20T17:59:24.930Z,60297.29
2018-08-20T18:01:53.108Z,60294.24
2018-08-20T18:04:21.286Z,60297.29
2018-08-20T18:06:51.914Z,60304.40
2018-08-20T18:09:20.110Z,60287.12
2018-08-20T18:11:51.112Z,60280.01
2018-08-20T18:14:20.683Z,60299.32
2018-08-20T18:16:48.877Z,60303.38
2018-08-20T18:19:17.374Z,60299.32
2018-08-20T18:21:45.660Z,60257.66
2018-08-20T18:24:20.891Z,60287.12
2018-08-20T18:26:52.718Z,60288.14
2018-08-20T18:29:20.914Z,60306.43
2018-08-20T18:31:53.182Z,60300.34
2018-08-20T18:34:21.620Z,60301.35
2018-08-20T18:36:49.802Z,60301.35
2018-08-20T18:39:17.983Z,60289.16
2018-08-20T18:42:03.616Z,60297.29
2018-08-20T18:44:31.807Z,60312.53
2018-08-20T18:47:00.034Z,60274.93
2018-08-20T18:49:28.218Z,60296.27
2018-08-20T18:52:02.975Z,60290.17
2018-08-20T18:54:36.339Z,60302.37
2018-08-20T18:57:05.356Z,60304.40
2018-08-20T18:59:35.063Z,60296.27
2018-08-20T19:02:03.297Z,60296.27
2018-08-20T19:04:38.221Z,60314.56
2018-08-20T19:07:09.019Z,60324.72
2018-08-20T19:09:37.603Z,60302.37
2018-08-20T19:12:05.802Z,60299.32
2018-08-20T19:14:34.006Z,60319.64
2018-08-20T19:17:02.230Z,60297.29
2018-08-20T19:19:34.571Z,60306.43
2018-08-20T19:22:02.782Z,60309.48
2018-08-20T19:24:35.118Z,60313.54
2018-08-20T19:27:07.554Z,60311.51
2018-08-20T19:29:35.654Z,60301.35
2018-08-20T19:32:03.885Z,60297.29
2018-08-20T19:34:32.066Z,60306.43
2018-08-20T19:37:00.251Z,60310.50
2018-08-20T19:39:28.432Z,60300.34
2018-08-20T19:41:56.664Z,60314.56
2018-08-20T19:44:24.869Z,60301.35
2018-08-20T19:46:54.906Z,60298.30
2018-08-20T19:49:23.563Z,60311.51
2018-08-20T19:51:51.770Z,60312.53
2018-08-20T19:54:19.979Z,60314.56
2018-08-20T19:56:48.194Z,60305.41
2018-08-20T19:59:26.555Z,60303.38
2018-08-20T20:01:55.297Z,60319.64
2018-08-20T20:04:23.474Z,60313.54
2018-08-20T20:06:51.680Z,60316.59
2018-08-20T20:09:19.868Z,60324.72
2018-08-20T20:11:49.693Z,60300.34
2018-08-20T20:14:17.901Z,60307.45
2018-08-20T20:16:51.402Z,60293.22
2018-08-20T20:19:19.652Z,60330.82
2018-08-20T20:21:47.890Z,60298.30
2018-08-20T20:24:16.094Z,60313.54
2018-08-20T20:26:44.285Z,60305.41
2018-08-20T20:29:12.567Z,60307.45
2018-08-20T20:31:41.737Z,60310.50
2018-08-20T20:34:10.029Z,60328.79
2018-08-20T20:36:38.246Z,60330.82
2018-08-20T20:39:08.679Z,60309.48
2018-08-20T20:41:36.926Z,60330.82
2018-08-20T20:44:05.441Z,60306.43
2018-08-20T20:46:33.697Z,60299.32
2018-08-20T20:49:01.869Z,60330.82
2018-08-20T20:51:30.050Z,60334.88
2018-08-20T20:53:58.219Z,60322.69
2018-08-20T20:56:26.399Z,60330.82
2018-08-20T20:58:54.602Z,60335.90
2018-08-20T21:01:22.830Z,60305.41
2018-08-20T21:03:51.046Z,60314.56
2018-08-20T21:06:19.333Z,60309.48
2018-08-20T21:08:48.552Z,60317.61
2018-08-20T21:11:17.898Z,60323.71
2018-08-20T21:13:46.390Z,60333.87
2018-08-20T21:16:15.749Z,60318.62
2018-08-20T21:18:46.590Z,60318.62
2018-08-20T21:21:15.983Z,60305.41
2018-08-20T21:23:44.194Z,60309.48
2018-08-20T21:26:12.402Z,60321.67
2018-08-20T21:28:43.418Z,60317.61
2018-08-20T21:31:12.046Z,60308.46
2018-08-20T21:33:40.947Z,60343.01
2018-08-20T21:36:09.424Z,60326.75
2018-08-20T21:38:37.599Z,60318.62
2018-08-20T21:41:05.947Z,60322.69
2018-08-20T21:43:39.508Z,60342.00
2018-08-20T21:46:07.755Z,60320.66
2018-08-20T21:48:35.939Z,60329.80
2018-08-20T21:51:07.903Z,60316.59
2018-08-20T21:53:38.742Z,60333.87
2018-08-20T21:56:11.110Z,60309.48
2018-08-20T21:58:41.480Z,60347.08
2018-08-20T22:01:11.162Z,60321.67
2018-08-20T22:03:39.722Z,60328.79
2018-08-20T22:06:07.982Z,60330.82
2018-08-20T22:08:36.802Z,60327.77
2018-08-20T22:11:05.015Z,60332.85
2018-08-20T22:13:33.347Z,60309.48
2018-08-20T22:16:16.258Z,60315.57
2018-08-20T22:18:45.669Z,60311.51
2018-08-20T22:21:15.042Z,60338.95
2018-08-20T22:23:43.966Z,60329.80
2018-08-20T22:26:14.095Z,60308.46
2018-08-20T22:28:42.654Z,60322.69
2018-08-20T22:31:10.869Z,60303.38
2018-08-20T22:33:39.216Z,60333.87
2018-08-20T22:36:08.423Z,60322.69
2018-08-20T22:38:57.992Z,60334.88
2018-08-20T22:41:27.282Z,60328.79
2018-08-20T22:43:55.504Z,60321.67
2018-08-20T22:46:24.287Z,60337.93
2018-08-20T22:48:53.858Z,60334.88
2018-08-20T22:51:22.781Z,60339.96
2018-08-20T22:53:54.080Z,60306.43
2018-08-20T22:56:36.907Z,60327.77
2018-08-20T22:59:09.648Z,60314.56
2018-08-20T23:01:37.895Z,60322.69
2018-08-20T23:04:06.460Z,60329.80
2018-08-20T23:06:34.694Z,60334.88
2018-08-20T23:09:34.866Z,60343.01
2018-08-20T23:12:03.090Z,60353.18
2018-08-20T23:14:32.850Z,60320.66
2018-08-20T23:17:01.042Z,60331.84
2018-08-20T23:19:30.128Z,60338.95
2018-08-20T23:21:58.308Z,60336.91
2018-08-20T23:24:26.478Z,60338.95
2018-08-20T23:26:54.660Z,60338.95
2018-08-20T23:29:22.876Z,60320.66
2018-08-20T23:31:51.054Z,60323.71
2018-08-20T23:34:19.223Z,60326.75
2018-08-20T23:36:47.447Z,60331.84
2018-08-20T23:39:16.737Z,60346.06
2018-08-20T23:41:44.926Z,60351.14
2018-08-20T23:44:15.517Z,60327.77
2018-08-20T23:46:45.568Z,60347.08
2018-08-20T23:49:13.757Z,60349.11
2018-08-20T23:51:41.942Z,60334.88
2018-08-20T23:54:11.143Z,60328.79
2018-08-20T23:56:39.314Z,60325.74
2018-08-20T23:59:07.602Z,60336.91
